createdAt,value
2018-07-13T00:01:31.033Z,4.80
2018-07-13T00:03:59.220Z,5.87
2018-07-13T00:06:27.371Z,4.77
2018-07-13T00:08:55.541Z,4.93
2018-07-13T00:11:23.729Z,5.13
2018-07-13T00:14:16.565Z,4.87
2018-07-13T00:16:45.432Z,4.70
2018-07-13T00:19:14.173Z,4.83
2018-07-13T00:21:42.322Z,5.17
2018-07-13T00:24:10.496Z,5.00
2018-07-13T00:26:39.106Z,5.53
2018-07-13T00:29:07.660Z,6.10
2018-07-13T00:31:36.575Z,6.17
2018-07-13T00:34:04.898Z,6.00
2018-07-13T00:36:33.070Z,5.20
2018-07-13T00:39:01.240Z,5.67
2018-07-13T00:41:29.432Z,5.30
2018-07-13T00:43:57.603Z,5.57
2018-07-13T00:46:25.773Z,5.23
2018-07-13T00:48:53.934Z,5.20
2018-07-13T00:51:22.095Z,5.70
2018-07-13T00:53:50.276Z,5.53
2018-07-13T00:56:18.424Z,5.90
2018-07-13T00:58:46.602Z,4.90
2018-07-13T01:01:14.734Z,4.87
2018-07-13T01:03:42.893Z,5.30
2018-07-13T01:06:11.033Z,5.90
2018-07-13T01:08:39.174Z,5.20
2018-07-13T01:11:07.306Z,5.50
2018-07-13T01:13:35.460Z,4.50
2018-07-13T01:16:03.810Z,5.50
2018-07-13T01:18:31.970Z,4.80
2018-07-13T01:21:00.110Z,5.40
2018-07-13T01:23:28.270Z,5.13
2018-07-13T01:25:56.418Z,5.50
2018-07-13T01:28:24.559Z,5.47
2018-07-13T01:30:52.697Z,5.20
2018-07-13T01:33:20.864Z,5.90
2018-07-13T01:35:48.996Z,5.60
2018-07-13T01:38:17.140Z,4.93
2018-07-13T01:40:45.270Z,5.13
2018-07-13T01:43:13.414Z,6.03
2018-07-13T01:45:47.859Z,5.70
2018-07-13T01:48:16.033Z,5.30
2018-07-13T01:50:44.166Z,5.50
2018-07-13T01:53:12.325Z,5.33
2018-07-13T01:55:40.513Z,5.20
2018-07-13T01:58:08.616Z,5.53
2018-07-13T02:00:36.769Z,5.23
2018-07-13T02:03:04.894Z,5.33
2018-07-13T02:05:33.050Z,5.00
2018-07-13T02:08:01.198Z,6.30
2018-07-13T02:10:29.347Z,5.53
2018-07-13T02:12:57.485Z,5.40
2018-07-13T02:15:25.658Z,5.70
2018-07-13T02:17:53.833Z,5.43
2018-07-13T02:20:21.957Z,5.90
2018-07-13T02:22:50.106Z,5.70
2018-07-13T02:25:18.249Z,5.50
2018-07-13T02:27:46.399Z,5.77
2018-07-13T02:30:14.541Z,6.07
2018-07-13T02:32:42.695Z,6.10
2018-07-13T02:35:10.834Z,5.70
2018-07-13T02:37:38.963Z,5.63
2018-07-13T02:40:07.113Z,6.37
2018-07-13T02:42:35.286Z,6.07
2018-07-13T02:45:03.447Z,5.80
2018-07-13T02:47:31.582Z,5.70
2018-07-13T02:49:59.743Z,5.90
2018-07-13T02:52:27.947Z,5.97
2018-07-13T02:55:02.574Z,6.03
2018-07-13T02:57:30.762Z,5.40
2018-07-13T02:59:58.935Z,5.90
2018-07-13T03:02:27.114Z,5.90
2018-07-13T03:04:55.291Z,5.20
2018-07-13T03:07:23.461Z,5.70
2018-07-13T03:09:51.640Z,6.07
2018-07-13T03:12:26.122Z,5.57
2018-07-13T03:14:54.303Z,5.80
2018-07-13T03:17:22.466Z,5.70
2018-07-13T03:19:50.630Z,6.30
2018-07-13T03:22:18.905Z,6.20
2018-07-13T03:24:46.961Z,5.60
2018-07-13T03:27:15.113Z,6.10
2018-07-13T03:29:43.321Z,5.27
2018-07-13T03:32:11.467Z,5.73
2018-07-13T03:34:39.625Z,5.60
2018-07-13T03:37:07.764Z,6.60
2018-07-13T03:39:35.918Z,5.17
2018-07-13T03:42:04.123Z,6.60
2018-07-13T03:44:32.391Z,6.90
2018-07-13T03:47:00.738Z,6.47
2018-07-13T03:49:28.887Z,6.27
2018-07-13T03:51:57.065Z,6.43
2018-07-13T03:54:25.233Z,6.70
2018-07-13T03:56:53.407Z,5.70
2018-07-13T03:59:21.578Z,6.47
2018-07-13T04:01:49.754Z,6.10
2018-07-13T04:04:17.895Z,6.77
2018-07-13T04:06:46.067Z,6.53
2018-07-13T04:09:14.238Z,6.27
2018-07-13T04:11:42.432Z,6.43
2018-07-13T04:14:10.609Z,6.70
2018-07-13T04:16:38.769Z,6.63
2018-07-13T04:19:06.931Z,6.10
2018-07-13T04:21:35.104Z,6.13
2018-07-13T04:24:03.249Z,6.43
2018-07-13T04:26:31.544Z,6.93
2018-07-13T04:28:59.701Z,6.60
2018-07-13T04:31:34.560Z,6.40
2018-07-13T04:34:02.753Z,7.10
2018-07-13T04:36:30.932Z,6.93
2018-07-13T04:38:59.114Z,6.57
2018-07-13T04:41:27.291Z,5.47
2018-07-13T04:43:55.448Z,6.47
2018-07-13T04:46:23.630Z,6.33
2018-07-13T04:48:51.804Z,5.83
2018-07-13T04:51:19.995Z,7.27
2018-07-13T04:53:48.195Z,6.50
2018-07-13T04:56:16.377Z,6.13
2018-07-13T04:58:44.551Z,6.10
2018-07-13T05:01:12.743Z,7.07
2018-07-13T05:03:40.963Z,6.53
2018-07-13T05:06:09.258Z,6.63
2018-07-13T05:08:37.427Z,6.50
2018-07-13T05:11:05.638Z,6.90
2018-07-13T05:13:33.798Z,6.20
2018-07-13T05:16:02.004Z,7.10
2018-07-13T05:18:30.188Z,6.23
2018-07-13T05:20:58.475Z,6.67
2018-07-13T05:23:26.648Z,6.93
2018-07-13T05:25:56.462Z,6.17
2018-07-13T05:28:24.637Z,7.27
2018-07-13T05:30:52.892Z,8.10
2018-07-13T05:33:21.055Z,7.67
2018-07-13T05:35:49.224Z,6.77
2018-07-13T05:38:17.387Z,6.87
2018-07-13T05:40:45.543Z,6.50
2018-07-13T05:43:13.732Z,7.03
2018-07-13T05:45:41.919Z,6.27
2018-07-13T05:48:10.078Z,6.60
2018-07-13T05:50:38.234Z,7.00
2018-07-13T05:53:06.400Z,6.63
2018-07-13T05:55:34.552Z,6.50
2018-07-13T05:58:02.721Z,6.80
2018-07-13T06:00:30.851Z,6.50
2018-07-13T06:02:59.021Z,6.63
2018-07-13T06:05:27.200Z,6.80
2018-07-13T06:07:55.391Z,6.60
2018-07-13T06:10:23.553Z,6.63
2018-07-13T06:12:51.739Z,6.63
2018-07-13T06:15:19.879Z,6.50
2018-07-13T06:17:48.047Z,6.27
2018-07-13T06:20:16.198Z,7.30
2018-07-13T06:22:44.387Z,6.70
2018-07-13T06:25:12.552Z,6.20
2018-07-13T06:27:40.770Z,6.20
2018-07-13T06:30:08.927Z,6.67
2018-07-13T06:32:37.091Z,6.77
2018-07-13T06:35:05.363Z,7.10
2018-07-13T06:37:33.580Z,6.97
2018-07-13T06:40:01.719Z,6.87
2018-07-13T06:42:29.922Z,6.90
2018-07-13T06:44:58.099Z,6.60
2018-07-13T06:47:26.273Z,6.50
2018-07-13T06:49:54.433Z,7.10
2018-07-13T06:52:22.604Z,6.10
2018-07-13T06:54:50.756Z,6.00
2018-07-13T06:57:30.523Z,5.57
2018-07-13T06:59:58.674Z,5.80
2018-07-13T07:02:38.101Z,5.73
2018-07-13T07:06:16.225Z,6.33
2018-07-13T07:08:47.574Z,5.80
2018-07-13T07:11:16.340Z,6.83
2018-07-13T07:13:45.250Z,6.10
2018-07-13T07:16:13.442Z,6.43
2018-07-13T07:18:41.726Z,5.97
2018-07-13T07:21:10.091Z,6.10
2018-07-13T07:23:38.476Z,6.70
2018-07-13T07:26:06.996Z,6.00
2018-07-13T07:28:35.176Z,6.50
2018-07-13T07:31:03.537Z,5.97
2018-07-13T07:33:31.741Z,6.50
2018-07-13T07:35:59.900Z,5.70
2018-07-13T07:38:28.080Z,5.80
2018-07-13T07:40:56.247Z,5.97
2018-07-13T07:43:24.448Z,6.20
2018-07-13T07:45:52.619Z,6.70
2018-07-13T07:48:20.822Z,6.07
2018-07-13T07:50:49.002Z,6.17
2018-07-13T07:53:17.176Z,6.40
2018-07-13T07:55:45.330Z,6.43
2018-07-13T07:58:13.473Z,6.20
2018-07-13T08:00:41.631Z,5.50
2018-07-13T08:03:09.811Z,6.67
2018-07-13T08:05:37.988Z,6.27
2018-07-13T08:08:06.176Z,6.27
2018-07-13T08:10:34.348Z,5.83
2018-07-13T08:13:02.560Z,5.93
2018-07-13T08:15:30.722Z,5.73
2018-07-13T08:17:58.890Z,5.60
2018-07-13T08:20:35.491Z,5.30
2018-07-13T08:23:07.929Z,5.83
2018-07-13T08:25:36.513Z,5.57
2018-07-13T08:28:04.924Z,6.40
2018-07-13T08:30:42.542Z,5.43
2018-07-13T08:33:10.723Z,5.97
2018-07-13T08:35:38.888Z,5.07
2018-07-13T08:38:07.255Z,6.10
2018-07-13T08:40:35.435Z,6.23
2018-07-13T08:43:03.588Z,5.97
2018-07-13T08:45:31.826Z,5.70
2018-07-13T08:47:59.944Z,5.40
2018-07-13T08:50:28.449Z,5.50
2018-07-13T08:52:57.002Z,5.47
2018-07-13T08:55:25.170Z,5.77
2018-07-13T08:57:53.315Z,4.90
2018-07-13T09:00:21.509Z,6.30
2018-07-13T09:02:49.657Z,5.67
2018-07-13T09:05:17.820Z,5.80
2018-07-13T09:07:45.987Z,6.13
2018-07-13T09:10:14.302Z,7.00
2018-07-13T09:12:42.656Z,5.50
2018-07-13T09:15:12.212Z,5.63
2018-07-13T09:17:40.412Z,5.37
2018-07-13T09:20:10.186Z,5.70
2018-07-13T09:22:38.331Z,5.70
2018-07-13T09:25:07.193Z,5.73
2018-07-13T09:27:35.354Z,5.30
2018-07-13T09:30:03.577Z,6.10
2018-07-13T09:32:31.732Z,5.43
2018-07-13T09:34:59.895Z,5.53
2018-07-13T09:37:28.075Z,5.40
2018-07-13T09:39:56.230Z,5.10
2018-07-13T09:42:24.376Z,5.67
2018-07-13T09:44:52.566Z,5.47
2018-07-13T09:47:20.714Z,5.43
2018-07-13T09:49:48.880Z,5.23
2018-07-13T09:52:17.059Z,5.60
2018-07-13T09:54:45.226Z,5.33
2018-07-13T09:57:13.390Z,5.30
2018-07-13T09:59:41.531Z,4.87
2018-07-13T10:02:09.690Z,4.63
2018-07-13T10:04:37.871Z,5.70
2018-07-13T10:07:06.438Z,5.60
2018-07-13T10:09:34.584Z,5.40
2018-07-13T10:12:02.766Z,5.43
2018-07-13T10:14:30.931Z,5.10
2018-07-13T10:16:59.081Z,5.50
2018-07-13T10:19:27.270Z,5.33
2018-07-13T10:21:55.449Z,5.67
2018-07-13T10:24:23.618Z,5.23
2018-07-13T10:26:52.250Z,5.13
2018-07-13T10:29:22.307Z,5.67
2018-07-13T10:31:50.704Z,5.23
2018-07-13T10:34:19.523Z,5.13
2018-07-13T10:36:57.846Z,5.50
2018-07-13T10:39:26.031Z,5.77
2018-07-13T10:41:54.325Z,5.00
2018-07-13T10:44:22.686Z,5.30
2018-07-13T10:46:51.035Z,5.57
2018-07-13T10:49:19.471Z,4.97
2018-07-13T10:51:47.831Z,5.37
2018-07-13T10:54:16.410Z,4.93
2018-07-13T10:56:44.614Z,5.60
2018-07-13T10:59:13.049Z,5.40
2018-07-13T11:01:41.676Z,7.17
2018-07-13T11:04:11.070Z,5.70
2018-07-13T11:06:39.266Z,5.17
2018-07-13T11:09:07.863Z,5.40
2018-07-13T11:11:36.255Z,4.93
2018-07-13T11:14:04.535Z,4.70
2018-07-13T11:16:32.747Z,6.00
2018-07-13T11:19:00.919Z,5.40
2018-07-13T11:21:29.217Z,4.83
2018-07-13T11:23:57.430Z,5.37
2018-07-13T11:26:25.715Z,4.90
2018-07-13T11:28:54.023Z,5.30
2018-07-13T11:31:22.246Z,5.60
2018-07-13T11:33:50.419Z,5.30
2018-07-13T11:36:18.611Z,5.23
2018-07-13T11:38:46.808Z,5.23
2018-07-13T11:41:14.984Z,6.60
2018-07-13T11:43:43.156Z,4.97
2018-07-13T11:46:11.321Z,5.17
2018-07-13T11:48:39.495Z,5.20
2018-07-13T11:51:07.675Z,5.20
2018-07-13T11:53:35.863Z,4.83
2018-07-13T11:56:04.054Z,4.50
2018-07-13T11:58:32.267Z,4.97
2018-07-13T12:01:00.442Z,5.20
2018-07-13T12:03:28.649Z,4.87
2018-07-13T12:05:56.823Z,4.70
2018-07-13T12:08:25.009Z,4.73
2018-07-13T12:10:53.257Z,5.20
2018-07-13T12:13:21.477Z,4.50
2018-07-13T12:15:49.727Z,4.70
2018-07-13T12:18:17.987Z,4.73
2018-07-13T12:20:46.188Z,4.50
2018-07-13T12:23:14.425Z,4.63
2018-07-13T12:25:42.628Z,3.90
2018-07-13T12:28:10.830Z,3.87
2018-07-13T12:30:39.029Z,3.90
2018-07-13T12:33:07.221Z,4.07
2018-07-13T12:35:35.402Z,3.80
2018-07-13T12:38:03.587Z,3.13
2018-07-13T12:40:31.780Z,3.37
2018-07-13T12:42:59.978Z,3.70
2018-07-13T12:45:28.134Z,2.83
2018-07-13T12:47:56.343Z,3.20
2018-07-13T12:50:24.804Z,3.37
2018-07-13T12:52:52.997Z,16.07
2018-07-13T12:55:21.171Z,3.60
2018-07-13T12:57:49.357Z,4.37
2018-07-13T13:00:17.526Z,3.73
2018-07-13T13:02:45.743Z,4.00
2018-07-13T13:05:13.894Z,4.73
2018-07-13T13:07:42.075Z,4.13
2018-07-13T13:10:10.267Z,4.53
2018-07-13T13:12:38.705Z,4.53
2018-07-13T13:15:07.280Z,4.60
2018-07-13T13:17:35.496Z,5.80
2018-07-13T13:20:03.766Z,5.13
2018-07-13T13:22:31.908Z,4.30
2018-07-13T13:25:00.087Z,4.57
2018-07-13T13:27:28.341Z,4.10
2018-07-13T13:29:56.644Z,4.40
2018-07-13T13:32:24.970Z,4.17
2018-07-13T13:34:53.199Z,4.27
2018-07-13T13:37:21.360Z,4.10
2018-07-13T13:39:49.528Z,3.70
2018-07-13T13:42:17.679Z,4.30
2018-07-13T13:44:46.568Z,3.90
2018-07-13T13:47:14.836Z,4.33
2018-07-13T13:49:43.158Z,4.53
2018-07-13T13:52:11.280Z,4.03
2018-07-13T13:54:39.444Z,4.00
2018-07-13T13:57:07.615Z,4.40
2018-07-13T13:59:36.053Z,3.80
2018-07-13T14:02:04.308Z,4.20
2018-07-13T14:04:38.997Z,3.97
2018-07-13T14:07:07.196Z,4.10
2018-07-13T14:09:35.374Z,4.00
2018-07-13T14:12:03.620Z,4.33
2018-07-13T14:14:31.762Z,4.13
2018-07-13T14:16:59.913Z,3.63
2018-07-13T14:19:28.084Z,4.30
2018-07-13T14:21:56.247Z,3.80
2018-07-13T14:24:24.465Z,4.57
2018-07-13T14:26:52.617Z,3.90
2018-07-13T14:29:20.786Z,4.33
2018-07-13T14:31:48.966Z,4.27
2018-07-13T14:34:17.154Z,4.13
2018-07-13T14:36:45.364Z,3.67
2018-07-13T14:39:13.519Z,3.53
2018-07-13T14:41:41.680Z,3.50
2018-07-13T14:44:09.855Z,4.20
2018-07-13T14:46:38.029Z,3.50
2018-07-13T14:49:06.209Z,3.63
2018-07-13T14:51:34.476Z,3.73
2018-07-13T14:54:02.835Z,3.57
2018-07-13T14:56:31.006Z,4.17
2018-07-13T14:58:59.177Z,4.10
2018-07-13T15:01:27.351Z,4.00
2018-07-13T15:03:55.518Z,3.70
2018-07-13T15:06:23.821Z,3.73
2018-07-13T15:08:51.852Z,3.53
2018-07-13T15:11:20.027Z,3.70
2018-07-13T15:13:48.383Z,3.23
2018-07-13T15:16:16.553Z,3.57
2018-07-13T15:18:44.715Z,3.57
2018-07-13T15:21:12.900Z,3.60
2018-07-13T15:23:41.057Z,3.33
2018-07-13T15:26:09.215Z,3.80
2018-07-13T15:28:37.367Z,3.60
2018-07-13T15:31:05.544Z,3.27
2018-07-13T15:33:33.714Z,3.33
2018-07-13T15:36:01.929Z,3.40
2018-07-13T15:38:30.111Z,3.80
2018-07-13T15:40:58.297Z,3.30
2018-07-13T15:43:26.552Z,3.27
2018-07-13T15:45:54.655Z,3.70
2018-07-13T15:48:22.852Z,3.60
2018-07-13T15:50:51.032Z,3.27
2018-07-13T15:53:19.188Z,3.27
2018-07-13T15:55:52.868Z,3.40
2018-07-13T15:58:21.010Z,4.03
2018-07-13T16:00:49.211Z,4.43
2018-07-13T16:03:17.374Z,3.07
2018-07-13T16:05:45.597Z,3.30
2018-07-13T16:08:13.758Z,3.70
2018-07-13T16:10:41.953Z,3.20
2018-07-13T16:13:10.170Z,3.53
2018-07-13T16:15:38.350Z,3.57
2018-07-13T16:18:06.640Z,3.80
2018-07-13T16:20:34.821Z,4.13
2018-07-13T16:23:03.085Z,3.80
2018-07-13T16:25:31.259Z,3.40
2018-07-13T16:27:59.454Z,3.23
2018-07-13T16:30:27.674Z,3.40
2018-07-13T16:32:55.878Z,3.70
2018-07-13T16:35:24.132Z,3.53
2018-07-13T16:37:52.328Z,4.00
2018-07-13T16:40:20.548Z,3.50
2018-07-13T16:42:48.894Z,3.70
2018-07-13T16:45:17.066Z,3.60
2018-07-13T16:47:45.473Z,3.53
2018-07-13T16:50:13.631Z,3.33
2018-07-13T16:52:41.859Z,8.77
2018-07-13T16:55:10.053Z,5.60
2018-07-13T16:57:38.350Z,3.67
2018-07-13T17:00:07.271Z,3.63
2018-07-13T17:02:35.523Z,3.53
2018-07-13T17:05:03.718Z,3.40
2018-07-13T17:07:31.925Z,3.60
2018-07-13T17:10:00.092Z,4.30
2018-07-13T17:12:28.329Z,5.00
2018-07-13T17:14:56.511Z,4.30
2018-07-13T17:17:25.514Z,4.00
2018-07-13T17:19:55.093Z,4.00
2018-07-13T17:22:23.611Z,3.73
2018-07-13T17:24:51.803Z,3.77
2018-07-13T17:27:21.279Z,4.13
2018-07-13T17:29:49.536Z,3.90
2018-07-13T17:32:18.012Z,4.10
2018-07-13T17:34:47.789Z,4.67
2018-07-13T17:37:16.023Z,4.20
2018-07-13T17:39:44.584Z,3.80
2018-07-13T17:42:13.063Z,4.40
2018-07-13T17:44:41.335Z,3.70
2018-07-13T17:47:09.623Z,4.13
2018-07-13T17:49:37.788Z,5.43
2018-07-13T17:52:06.001Z,7.10
2018-07-13T17:54:34.191Z,4.47
2018-07-13T17:57:02.386Z,5.30
2018-07-13T17:59:30.600Z,4.50
2018-07-13T18:01:58.809Z,4.80
2018-07-13T18:04:26.995Z,4.83
2018-07-13T18:06:55.211Z,4.80
2018-07-13T18:09:23.407Z,4.53
2018-07-13T18:11:51.798Z,3.87
2018-07-13T18:14:20.003Z,4.37
2018-07-13T18:16:48.182Z,3.93
2018-07-13T18:19:16.367Z,3.87
2018-07-13T18:21:44.542Z,4.03
2018-07-13T18:24:12.766Z,4.20
2018-07-13T18:26:41.638Z,4.23
2018-07-13T18:29:09.870Z,3.83
2018-07-13T18:31:38.147Z,3.63
2018-07-13T18:34:06.319Z,4.40
2018-07-13T18:36:34.484Z,4.50
2018-07-13T18:39:02.925Z,4.57
2018-07-13T18:41:31.097Z,3.70
2018-07-13T18:43:59.269Z,4.27
2018-07-13T18:46:27.447Z,3.63
2018-07-13T18:48:55.620Z,5.20
2018-07-13T18:51:23.798Z,4.30
2018-07-13T18:53:52.071Z,4.20
2018-07-13T18:56:20.210Z,3.90
2018-07-13T18:58:48.420Z,4.50
2018-07-13T19:01:16.572Z,7.10
2018-07-13T19:03:44.783Z,6.33
2018-07-13T19:06:12.999Z,9.07
2018-07-13T19:08:41.222Z,12.90
2018-07-13T19:11:09.396Z,22.00
2018-07-13T19:13:37.607Z,31.33
2018-07-13T19:16:05.787Z,26.20
2018-07-13T19:18:33.982Z,18.50
2018-07-13T19:21:02.138Z,5.53
2018-07-13T19:23:30.303Z,5.87
2018-07-13T19:25:58.501Z,8.23
2018-07-13T19:28:26.663Z,6.20
2018-07-13T19:30:54.849Z,4.87
2018-07-13T19:33:23.011Z,5.57
2018-07-13T19:35:51.165Z,5.17
2018-07-13T19:38:19.333Z,5.30
2018-07-13T19:40:47.506Z,5.93
2018-07-13T19:43:15.683Z,5.67
2018-07-13T19:45:43.856Z,5.73
2018-07-13T19:48:12.032Z,6.23
2018-07-13T19:50:40.203Z,4.90
2018-07-13T19:53:08.386Z,5.33
2018-07-13T19:55:37.940Z,4.77
2018-07-13T19:58:06.110Z,4.70
2018-07-13T20:00:34.378Z,4.93
2018-07-13T20:03:03.421Z,5.43
2018-07-13T20:05:31.587Z,4.80
2018-07-13T20:07:59.753Z,4.17
2018-07-13T20:10:27.939Z,4.80
2018-07-13T20:12:56.128Z,5.53
2018-07-13T20:15:24.333Z,5.57
2018-07-13T20:17:52.508Z,5.03
2018-07-13T20:20:20.790Z,5.03
2018-07-13T20:22:48.963Z,5.00
2018-07-13T20:25:17.181Z,5.30
2018-07-13T20:27:45.354Z,5.50
2018-07-13T20:30:13.534Z,5.63
2018-07-13T20:32:42.527Z,5.23
2018-07-13T20:35:10.707Z,5.40
2018-07-13T20:37:38.838Z,4.93
2018-07-13T20:40:07.072Z,4.87
2018-07-13T20:42:35.223Z,5.13
2018-07-13T20:45:03.855Z,5.07
2018-07-13T20:47:32.009Z,5.17
2018-07-13T20:50:00.196Z,5.00
2018-07-13T20:52:28.361Z,4.47
2018-07-13T20:54:56.518Z,4.90
2018-07-13T20:57:24.677Z,5.13
2018-07-13T20:59:52.817Z,4.97
2018-07-13T21:02:27.444Z,5.00
2018-07-13T21:04:55.587Z,4.50
2018-07-13T21:07:23.739Z,4.63
2018-07-13T21:09:51.888Z,5.13
2018-07-13T21:12:20.052Z,5.40
2018-07-13T21:14:48.202Z,5.40
2018-07-13T21:17:16.366Z,5.40
2018-07-13T21:19:44.525Z,5.40
2018-07-13T21:22:12.691Z,5.60
2018-07-13T21:24:40.828Z,5.53
2018-07-13T21:27:09.002Z,5.73
2018-07-13T21:29:37.180Z,5.00
2018-07-13T21:32:05.395Z,4.83
2018-07-13T21:34:33.551Z,5.20
2018-07-13T21:37:01.729Z,6.07
2018-07-13T21:39:29.854Z,5.63
2018-07-13T21:41:58.023Z,5.40
2018-07-13T21:44:26.174Z,5.20
2018-07-13T21:46:54.338Z,5.30
2018-07-13T21:49:22.518Z,5.60
2018-07-13T21:51:50.838Z,5.67
2018-07-13T21:54:19.133Z,6.23
2018-07-13T21:56:47.322Z,5.87
2018-07-13T21:59:15.523Z,6.30
2018-07-13T22:01:44.776Z,6.10
2018-07-13T22:04:12.901Z,6.10
2018-07-13T22:06:41.411Z,6.13
2018-07-13T22:09:09.561Z,5.90
2018-07-13T22:11:37.712Z,6.00
2018-07-13T22:14:05.987Z,5.60
2018-07-13T22:16:34.116Z,5.53
2018-07-13T22:19:02.266Z,5.97
2018-07-13T22:21:30.412Z,5.90
2018-07-13T22:23:58.685Z,6.33
2018-07-13T22:26:26.774Z,6.10
2018-07-13T22:28:54.863Z,5.80
2018-07-13T22:31:25.451Z,5.80
2018-07-13T22:33:57.792Z,5.40
2018-07-13T22:36:25.934Z,6.17
2018-07-13T22:38:54.146Z,5.50
2018-07-13T22:41:22.383Z,5.27
2018-07-13T22:43:50.687Z,5.37
2018-07-13T22:46:18.968Z,6.10
2018-07-13T22:48:47.382Z,5.30
2018-07-13T22:51:15.561Z,5.20
2018-07-13T22:53:43.719Z,5.10
2018-07-13T22:56:11.878Z,5.00
2018-07-13T22:58:42.138Z,5.00
2018-07-13T23:01:10.309Z,5.30
2018-07-13T23:03:38.465Z,5.50
2018-07-13T23:06:09.030Z,5.27
2018-07-13T23:08:37.200Z,5.53
2018-07-13T23:11:05.363Z,6.17
2018-07-13T23:13:33.536Z,6.00
2018-07-13T23:16:02.287Z,5.80
2018-07-13T23:18:30.483Z,5.33
2018-07-13T23:20:58.623Z,5.60
2018-07-13T23:23:27.125Z,5.23
2018-07-13T23:25:55.285Z,5.00
2018-07-13T23:28:25.050Z,5.47
2018-07-13T23:30:53.810Z,5.53
2018-07-13T23:33:22.341Z,5.97
2018-07-13T23:35:50.508Z,5.70
2018-07-13T23:38:18.684Z,5.50
2018-07-13T23:40:46.838Z,5.37
2018-07-13T23:43:15.021Z,6.00
2018-07-13T23:45:43.308Z,6.03
2018-07-13T23:48:11.747Z,5.90
2018-07-13T23:50:40.010Z,5.70
2018-07-13T23:53:08.551Z,4.93
2018-07-13T23:55:37.255Z,5.83
2018-07-13T23:58:05.482Z,5.60
